createdAt,value
2017-07-31T00:01:03.143Z,100691.91
2017-07-31T00:03:29.519Z,100700.78
2017-07-31T00:05:55.906Z,100703.94
2017-07-31T00:08:22.298Z,100709.66
2017-07-31T00:10:49.455Z,100708.42
2017-07-31T00:13:15.811Z,100717.70
2017-07-31T00:15:42.187Z,100715.52
2017-07-31T00:18:08.649Z,100720.83
2017-07-31T00:20:35.018Z,100717.34
2017-07-31T00:23:01.404Z,100720.09
2017-07-31T00:25:27.769Z,100717.44
2017-07-31T00:27:54.142Z,100719.27
2017-07-31T00:30:20.502Z,100720.19
2017-07-31T00:32:46.872Z,100714.95
2017-07-31T00:35:13.255Z,100714.95
2017-07-31T00:37:39.631Z,100702.61
2017-07-31T00:40:06.007Z,100693.33
2017-07-31T00:42:32.384Z,100689.84
2017-07-31T00:44:58.719Z,100689.44
2017-07-31T00:47:25.098Z,100702.70
2017-07-31T00:49:51.459Z,100708.00
2017-07-31T00:52:17.827Z,100705.44
2017-07-31T00:54:44.949Z,100705.91
2017-07-31T00:57:11.326Z,100691.33
2017-07-31T00:59:37.687Z,100674.60
2017-07-31T01:02:04.823Z,100659.61
2017-07-31T01:04:31.201Z,100659.20
2017-07-31T01:06:58.347Z,100675.61
2017-07-31T01:09:24.730Z,100682.23
2017-07-31T01:11:51.859Z,100684.48
2017-07-31T01:14:18.218Z,100694.23
2017-07-31T01:16:44.580Z,100706.57
2017-07-31T01:19:10.934Z,100711.46
2017-07-31T01:21:38.055Z,100710.55
2017-07-31T01:24:04.510Z,100717.77
2017-07-31T01:26:30.901Z,100719.92
2017-07-31T01:28:57.291Z,100719.09
2017-07-31T01:31:23.652Z,100725.31
2017-07-31T01:33:50.022Z,100727.97
2017-07-31T01:36:16.386Z,100732.03
2017-07-31T01:38:42.760Z,100739.13
2017-07-31T01:41:09.895Z,100736.58
2017-07-31T01:43:36.253Z,100737.39
2017-07-31T01:46:02.632Z,100738.41
2017-07-31T01:48:28.998Z,100747.27
2017-07-31T01:50:55.362Z,100751.16
2017-07-31T01:53:21.726Z,100745.03
2017-07-31T01:55:48.095Z,100737.14
2017-07-31T01:58:14.494Z,100736.25
2017-07-31T02:00:40.855Z,100734.02
2017-07-31T02:03:07.223Z,100728.37
2017-07-31T02:05:33.583Z,100725.71
2017-07-31T02:07:59.956Z,100725.20
2017-07-31T02:10:27.096Z,100731.52
2017-07-31T02:12:53.455Z,100729.69
2017-07-31T02:15:19.827Z,100723.56
2017-07-31T02:17:46.958Z,100725.80
2017-07-31T02:20:13.354Z,100732.02
2017-07-31T02:22:40.488Z,100730.34
2017-07-31T02:25:06.846Z,100723.31
2017-07-31T02:27:33.214Z,100727.70
2017-07-31T02:30:00.450Z,100722.90
2017-07-31T02:32:26.843Z,100732.27
2017-07-31T02:34:53.226Z,100715.95
2017-07-31T02:37:19.590Z,100708.73
2017-07-31T02:39:45.963Z,100711.89
2017-07-31T02:42:12.344Z,100711.47
2017-07-31T02:44:38.707Z,100722.08
2017-07-31T02:47:05.066Z,100718.19
2017-07-31T02:49:31.442Z,100721.82
2017-07-31T02:51:57.994Z,100716.52
2017-07-31T02:54:24.390Z,100715.79
2017-07-31T02:56:50.765Z,100714.87
2017-07-31T02:59:17.141Z,100716.77
2017-07-31T03:01:43.508Z,100721.15
2017-07-31T03:04:09.866Z,100730.02
2017-07-31T03:06:36.260Z,100726.95
2017-07-31T03:09:02.656Z,100728.22
2017-07-31T03:11:29.010Z,100732.31
2017-07-31T03:13:55.378Z,100735.37
2017-07-31T03:16:21.743Z,100736.80
2017-07-31T03:18:48.106Z,100744.33
2017-07-31T03:21:14.474Z,100745.25
2017-07-31T03:23:40.838Z,100736.86
2017-07-31T03:26:07.225Z,100740.01
2017-07-31T03:28:33.602Z,100735.63
2017-07-31T03:30:59.968Z,100733.47
2017-07-31T03:33:26.342Z,100732.15
2017-07-31T03:35:52.704Z,100738.36
2017-07-31T03:38:19.079Z,100737.95
2017-07-31T03:40:45.440Z,100735.30
2017-07-31T03:43:11.810Z,100738.02
2017-07-31T03:45:38.197Z,100736.78
2017-07-31T03:48:04.557Z,100737.60
2017-07-31T03:50:30.945Z,100744.73
2017-07-31T03:52:57.309Z,100744.31
2017-07-31T03:55:23.699Z,100752.27
2017-07-31T03:57:50.075Z,100755.84
2017-07-31T04:00:16.482Z,100755.92
2017-07-31T04:02:42.854Z,100760.31
2017-07-31T04:05:09.230Z,100760.38
2017-07-31T04:07:36.353Z,100761.70
2017-07-31T04:10:02.731Z,100754.75
2017-07-31T04:12:29.094Z,100758.23
2017-07-31T04:14:56.235Z,100759.14
2017-07-31T04:17:22.642Z,100764.03
2017-07-31T04:19:49.012Z,100765.45
2017-07-31T04:22:15.383Z,100770.30
2017-07-31T04:24:41.762Z,100772.48
2017-07-31T04:27:08.149Z,100771.22
2017-07-31T04:29:34.527Z,100762.44
2017-07-31T04:32:00.893Z,100756.32
2017-07-31T04:34:27.253Z,100760.70
2017-07-31T04:36:54.382Z,100762.95
2017-07-31T04:39:20.746Z,100769.16
2017-07-31T04:41:47.134Z,100769.16
2017-07-31T04:44:13.495Z,100765.69
2017-07-31T04:46:39.862Z,100770.14
2017-07-31T04:49:06.226Z,100772.37
2017-07-31T04:51:32.613Z,100775.02
2017-07-31T04:53:59.014Z,100765.84
2017-07-31T04:56:25.384Z,100769.81
2017-07-31T04:58:51.781Z,100764.61
2017-07-31T05:01:18.156Z,100772.05
2017-07-31T05:03:44.527Z,100772.55
2017-07-31T05:06:10.883Z,100769.08
2017-07-31T05:08:37.456Z,100771.73
2017-07-31T05:11:03.834Z,100780.56
2017-07-31T05:13:30.235Z,100780.56
2017-07-31T05:15:56.603Z,100776.18
2017-07-31T05:18:23.002Z,100785.55
2017-07-31T05:20:49.366Z,100783.30
2017-07-31T05:23:15.750Z,100773.20
2017-07-31T05:25:42.106Z,100777.19
2017-07-31T05:28:08.471Z,100762.20
2017-07-31T05:30:34.842Z,100761.78
2017-07-31T05:33:01.243Z,100767.09
2017-07-31T05:35:27.627Z,100779.92
2017-07-31T05:37:54.791Z,100786.11
2017-07-31T05:40:21.932Z,100785.23
2017-07-31T05:42:48.319Z,100783.05
2017-07-31T05:45:14.678Z,100782.22
2017-07-31T05:47:41.050Z,100778.75
2017-07-31T05:50:07.434Z,100781.81
2017-07-31T05:52:33.801Z,100776.52
2017-07-31T05:55:00.198Z,100783.55
2017-07-31T05:57:26.565Z,100788.94
2017-07-31T05:59:52.959Z,100794.23
2017-07-31T06:02:19.335Z,100801.77
2017-07-31T06:04:45.703Z,100798.63
2017-07-31T06:07:12.078Z,100797.62
2017-07-31T06:09:38.458Z,100797.97
2017-07-31T06:12:04.835Z,100804.00
2017-07-31T06:14:31.204Z,100803.35
2017-07-31T06:16:57.555Z,100804.53
2017-07-31T06:19:23.917Z,100802.28
2017-07-31T06:21:50.298Z,100801.38
2017-07-31T06:24:17.535Z,100820.66
2017-07-31T06:26:45.112Z,100825.48
2017-07-31T06:29:11.661Z,100824.22
2017-07-31T06:31:38.231Z,100822.33
2017-07-31T06:34:04.748Z,100828.72
2017-07-31T06:36:31.126Z,100833.11
2017-07-31T06:38:57.504Z,100828.22
2017-07-31T06:41:23.911Z,100836.08
2017-07-31T06:43:50.286Z,100846.63
2017-07-31T06:46:16.647Z,100844.80
2017-07-31T06:48:43.019Z,100846.03
2017-07-31T06:51:09.383Z,100842.66
2017-07-31T06:53:35.775Z,100845.73
2017-07-31T06:56:02.147Z,100853.68
2017-07-31T06:58:28.515Z,100850.62
2017-07-31T07:00:54.898Z,100854.59
2017-07-31T07:03:21.258Z,100852.80
2017-07-31T07:05:47.672Z,100858.16
2017-07-31T07:08:14.042Z,100859.89
2017-07-31T07:10:40.410Z,100865.20
2017-07-31T07:13:06.984Z,100862.61
2017-07-31T07:15:33.358Z,100860.87
2017-07-31T07:17:59.723Z,100870.14
2017-07-31T07:20:26.087Z,100863.52
2017-07-31T07:22:52.458Z,100867.17
2017-07-31T07:25:18.939Z,100865.34
2017-07-31T07:27:45.298Z,100872.38
2017-07-31T07:30:11.695Z,100869.73
2017-07-31T07:32:38.058Z,100882.42
2017-07-31T07:35:04.436Z,100871.58
2017-07-31T07:37:30.800Z,100871.52
2017-07-31T07:39:57.922Z,100863.39
2017-07-31T07:42:24.315Z,100861.91
2017-07-31T07:44:50.675Z,100861.32
2017-07-31T07:47:17.831Z,100861.58
2017-07-31T07:49:44.203Z,100860.61
2017-07-31T07:52:11.326Z,100859.92
2017-07-31T07:54:37.700Z,100869.14
2017-07-31T07:57:04.847Z,100865.08
2017-07-31T07:59:31.220Z,100870.29
2017-07-31T08:01:58.347Z,100868.41
2017-07-31T08:04:24.732Z,100870.55
2017-07-31T08:06:51.977Z,100874.37
2017-07-31T08:09:18.352Z,100874.61
2017-07-31T08:11:44.718Z,100874.36
2017-07-31T08:14:11.102Z,100860.54
2017-07-31T08:16:37.495Z,100862.19
2017-07-31T08:19:03.895Z,100867.48
2017-07-31T08:21:30.283Z,100875.80
2017-07-31T08:23:56.683Z,100882.42
2017-07-31T08:26:23.099Z,100889.38
2017-07-31T08:28:49.486Z,100891.47
2017-07-31T08:31:15.884Z,100901.48
2017-07-31T08:33:42.272Z,100913.27
2017-07-31T08:36:08.663Z,100917.56
2017-07-31T08:38:35.036Z,100910.88
2017-07-31T08:41:01.433Z,100907.63
2017-07-31T08:43:27.842Z,100908.86
2017-07-31T08:45:54.216Z,100911.92
2017-07-31T08:48:20.629Z,100917.08
2017-07-31T08:50:47.075Z,100907.23
2017-07-31T08:53:13.486Z,100911.44
2017-07-31T08:55:39.870Z,100906.48
2017-07-31T08:58:06.241Z,100905.83
2017-07-31T09:00:32.648Z,100903.34
2017-07-31T09:02:59.032Z,100902.66
2017-07-31T09:05:25.400Z,100912.80
2017-07-31T09:07:51.774Z,100922.00
2017-07-31T09:10:18.156Z,100918.34
2017-07-31T09:12:44.541Z,100919.92
2017-07-31T09:15:10.954Z,100919.36
2017-07-31T09:17:39.390Z,100914.11
2017-07-31T09:20:05.806Z,100910.48
2017-07-31T09:22:32.275Z,100908.98
2017-07-31T09:24:58.844Z,100912.95
2017-07-31T09:27:25.214Z,100922.75
2017-07-31T09:29:51.598Z,100922.18
2017-07-31T09:32:17.974Z,100929.73
2017-07-31T09:34:44.368Z,100934.63
2017-07-31T09:37:11.502Z,100935.45
2017-07-31T09:39:37.902Z,100934.12
2017-07-31T09:42:04.299Z,100923.41
2017-07-31T09:44:30.669Z,100933.70
2017-07-31T09:46:57.040Z,100920.35
2017-07-31T09:49:23.443Z,100926.06
2017-07-31T09:51:49.831Z,100918.52
2017-07-31T09:54:16.978Z,100921.58
2017-07-31T09:56:43.352Z,100911.38
2017-07-31T09:59:10.505Z,100910.56
2017-07-31T10:01:36.876Z,100918.11
2017-07-31T10:04:04.036Z,100926.98
2017-07-31T10:06:31.176Z,100932.20
2017-07-31T10:08:58.200Z,100947.20
2017-07-31T10:11:24.653Z,100947.20
2017-07-31T10:13:51.020Z,100941.15
2017-07-31T10:16:17.504Z,100935.86
2017-07-31T10:18:43.882Z,100941.42
2017-07-31T10:21:10.242Z,100936.44
2017-07-31T10:23:36.619Z,100943.98
2017-07-31T10:26:02.996Z,100941.27
2017-07-31T10:28:30.145Z,100955.13
2017-07-31T10:30:56.535Z,100954.52
2017-07-31T10:33:23.654Z,100952.16
2017-07-31T10:35:50.019Z,100958.39
2017-07-31T10:38:16.488Z,100964.10
2017-07-31T10:40:42.882Z,100960.13
2017-07-31T10:43:09.507Z,100958.39
2017-07-31T10:45:36.649Z,100948.24
2017-07-31T10:48:05.215Z,100949.51
2017-07-31T10:50:32.790Z,100950.42
2017-07-31T10:52:59.276Z,100954.72
2017-07-31T10:55:25.843Z,100956.97
2017-07-31T10:57:52.213Z,100963.51
2017-07-31T11:00:18.583Z,100958.20
2017-07-31T11:02:44.943Z,100955.90
2017-07-31T11:05:11.339Z,100957.23
2017-07-31T11:07:37.723Z,100948.85
2017-07-31T11:10:04.144Z,100954.98
2017-07-31T11:12:30.518Z,100956.88
2017-07-31T11:14:56.899Z,100960.95
2017-07-31T11:17:23.299Z,100945.59
2017-07-31T11:19:49.672Z,100942.58
2017-07-31T11:22:16.031Z,100945.33
2017-07-31T11:24:42.438Z,100944.09
2017-07-31T11:27:08.783Z,100946.91
2017-07-31T11:29:35.162Z,100943.83
2017-07-31T11:32:01.558Z,100943.92
2017-07-31T11:34:27.950Z,100940.01
2017-07-31T11:36:54.316Z,100956.02
2017-07-31T11:39:21.443Z,100945.97
2017-07-31T11:41:47.844Z,100944.73
2017-07-31T11:44:14.213Z,100936.87
2017-07-31T11:46:40.588Z,100934.12
2017-07-31T11:49:07.111Z,100942.91
2017-07-31T11:51:33.483Z,100940.66
2017-07-31T11:53:59.872Z,100948.47
2017-07-31T11:56:26.251Z,100935.20
2017-07-31T11:58:52.646Z,100932.96
2017-07-31T12:01:19.024Z,100940.52
2017-07-31T12:03:46.172Z,100919.78
2017-07-31T12:06:12.544Z,100919.84
2017-07-31T12:08:39.785Z,100918.52
2017-07-31T12:11:06.155Z,100927.80
2017-07-31T12:13:32.523Z,100915.39
2017-07-31T12:15:58.926Z,100922.76
2017-07-31T12:18:25.318Z,100928.06
2017-07-31T12:20:52.442Z,100933.31
2017-07-31T12:23:18.830Z,100932.39
2017-07-31T12:25:45.991Z,100937.35
2017-07-31T12:28:13.235Z,100937.86
2017-07-31T12:30:39.606Z,100928.00
2017-07-31T12:33:05.991Z,100927.00
2017-07-31T12:35:32.375Z,100925.83
2017-07-31T12:37:58.870Z,100924.44
2017-07-31T12:40:25.255Z,100917.39
2017-07-31T12:42:51.724Z,100918.63
2017-07-31T12:45:18.108Z,100916.38
2017-07-31T12:47:44.467Z,100923.75
2017-07-31T12:50:10.900Z,100916.45
2017-07-31T12:52:37.306Z,100904.05
2017-07-31T12:55:03.662Z,100912.16
2017-07-31T12:57:30.016Z,100907.35
2017-07-31T12:59:56.520Z,100907.83
2017-07-31T13:02:22.907Z,100910.67
2017-07-31T13:04:49.310Z,100917.80
2017-07-31T13:07:15.698Z,100912.97
2017-07-31T13:09:42.051Z,100901.53
2017-07-31T13:12:08.435Z,100894.58
2017-07-31T13:14:34.800Z,100899.89
2017-07-31T13:17:01.161Z,100902.54
2017-07-31T13:19:27.546Z,100891.16
2017-07-31T13:21:53.899Z,100892.48
2017-07-31T13:24:20.274Z,100900.04
2017-07-31T13:26:46.644Z,100905.03
2017-07-31T13:29:13.017Z,100906.41
2017-07-31T13:31:39.393Z,100904.67
2017-07-31T13:34:05.807Z,100902.02
2017-07-31T13:36:32.184Z,100899.97
2017-07-31T13:38:58.823Z,100892.92
2017-07-31T13:41:25.190Z,100890.73
2017-07-31T13:43:51.576Z,100878.06
2017-07-31T13:46:17.938Z,100878.98
2017-07-31T13:48:44.300Z,100886.12
2017-07-31T13:51:10.683Z,100886.59
2017-07-31T13:53:37.311Z,100873.33
2017-07-31T13:56:03.691Z,100872.59
2017-07-31T13:58:30.081Z,100861.48
2017-07-31T14:00:56.473Z,100857.59
2017-07-31T14:03:26.678Z,100851.78
2017-07-31T14:05:53.044Z,100864.73
2017-07-31T14:08:19.477Z,100886.87
2017-07-31T14:10:46.034Z,100884.69
2017-07-31T14:13:12.402Z,100874.08
2017-07-31T14:15:38.770Z,100858.25
2017-07-31T14:18:05.154Z,100852.12
2017-07-31T14:20:31.531Z,100862.32
2017-07-31T14:22:57.899Z,100857.93
2017-07-31T14:25:24.305Z,100867.69
2017-07-31T14:27:50.688Z,100863.30
2017-07-31T14:30:17.159Z,100869.52
2017-07-31T14:32:43.546Z,100868.19
2017-07-31T14:35:09.937Z,100868.28
2017-07-31T14:37:36.325Z,100862.48
2017-07-31T14:40:02.728Z,100868.79
2017-07-31T14:42:29.119Z,100860.83
2017-07-31T14:44:55.500Z,100853.70
2017-07-31T14:47:21.869Z,100855.02
2017-07-31T14:49:48.245Z,100851.05
2017-07-31T14:52:14.609Z,100853.70
2017-07-31T14:54:41.050Z,100860.42
2017-07-31T14:57:07.450Z,100845.89
2017-07-31T14:59:33.846Z,100837.42
2017-07-31T15:02:00.755Z,100830.06
2017-07-31T15:04:27.223Z,100823.44
2017-07-31T15:06:53.642Z,100815.57
2017-07-31T15:09:20.778Z,100811.66
2017-07-31T15:11:47.171Z,100818.28
2017-07-31T15:14:13.543Z,100820.11
2017-07-31T15:16:40.119Z,100818.78
2017-07-31T15:19:06.504Z,100820.20
2017-07-31T15:21:33.554Z,100816.64
2017-07-31T15:23:59.919Z,100822.45
2017-07-31T15:26:26.291Z,100815.72
2017-07-31T15:28:52.693Z,100812.16
2017-07-31T15:31:19.099Z,100789.52
2017-07-31T15:33:45.521Z,100779.25
2017-07-31T15:36:12.707Z,100785.23
